sensor_id;sensor_type;location;lat;lon;timestamp;pressure;altitude;pressure_sealevel;temperature;humidity
62864;BME280;48954;59.950;11.014;2023-08-31T00:01:55;98976.16;;;9.56;80.99
62864;BME280;48954;59.950;11.014;2023-08-31T00:04:21;98978.86;;;9.53;81.03
62864;BME280;48954;59.950;11.014;2023-08-31T00:06:48;98979.06;;;9.51;81.03
62864;BME280;48954;59.950;11.014;2023-08-31T00:09:14;98979.98;;;9.49;81.24
62864;BME280;48954;59.950;11.014;2023-08-31T00:11:40;98984.98;;;9.48;81.31
62864;BME280;48954;59.950;11.014;2023-08-31T00:14:06;98983.59;;;9.49;81.42
62864;BME280;48954;59.950;11.014;2023-08-31T00:16:32;98982.09;;;9.49;81.42
62864;BME280;48954;59.950;11.014;2023-08-31T00:18:59;98981.54;;;9.49;81.41
62864;BME280;48954;59.950;11.014;2023-08-31T00:21:25;98981.77;;;9.47;81.39
62864;BME280;48954;59.950;11.014;2023-08-31T00:23:51;98980.20;;;9.48;81.53
62864;BME280;48954;59.950;11.014;2023-08-31T00:26:17;98981.30;;;9.47;81.53
62864;BME280;48954;59.950;11.014;2023-08-31T00:28:43;98975.40;;;9.45;81.51
62864;BME280;48954;59.950;11.014;2023-08-31T00:31:09;98980.89;;;9.46;81.52
62864;BME280;48954;59.950;11.014;2023-08-31T00:33:34;98982.21;;;9.46;81.66
62864;BME280;48954;59.950;11.014;2023-08-31T00:36:00;98983.48;;;9.46;81.68
62864;BME280;48954;59.950;11.014;2023-08-31T00:38:27;98988.02;;;9.45;81.80
62864;BME280;48954;59.950;11.014;2023-08-31T00:40:54;98985.60;;;9.46;81.84
62864;BME280;48954;59.950;11.014;2023-08-31T00:43:21;98986.53;;;9.46;81.88
62864;BME280;48954;59.950;11.014;2023-08-31T00:45:51;98991.85;;;9.45;81.80
62864;BME280;48954;59.950;11.014;2023-08-31T00:48:20;98991.44;;;9.44;81.86
62864;BME280;48954;59.950;11.014;2023-08-31T00:50:47;98995.95;;;9.42;81.76
62864;BME280;48954;59.950;11.014;2023-08-31T00:53:15;98993.63;;;9.38;81.60
62864;BME280;48954;59.950;11.014;2023-08-31T00:55:44;98993.27;;;9.36;81.64
62864;BME280;48954;59.950;11.014;2023-08-31T00:58:10;98997.80;;;9.34;81.64
62864;BME280;48954;59.950;11.014;2023-08-31T01:03:31;98991.19;;;9.27;81.69
62864;BME280;48954;59.950;11.014;2023-08-31T01:06:18;98988.56;;;9.25;81.74
62864;BME280;48954;59.950;11.014;2023-08-31T01:08:57;98989.16;;;9.22;81.73
62864;BME280;48954;59.950;11.014;2023-08-31T01:11:45;98987.08;;;9.19;81.73
62864;BME280;48954;59.950;11.014;2023-08-31T01:14:16;98983.88;;;9.15;81.63
62864;BME280;48954;59.950;11.014;2023-08-31T01:16:45;98985.02;;;9.14;81.69
62864;BME280;48954;59.950;11.014;2023-08-31T01:22:11;98985.36;;;9.10;81.77
62864;BME280;48954;59.950;11.014;2023-08-31T01:24:40;98988.08;;;9.08;81.82
62864;BME280;48954;59.950;11.014;2023-08-31T01:27:21;98987.55;;;9.05;81.84
62864;BME280;48954;59.950;11.014;2023-08-31T01:29:51;98988.11;;;9.01;81.78
62864;BME280;48954;59.950;11.014;2023-08-31T01:32:29;98992.30;;;8.99;81.84
62864;BME280;48954;59.950;11.014;2023-08-31T01:34:56;98990.38;;;8.97;81.86
62864;BME280;48954;59.950;11.014;2023-08-31T01:37:59;98992.01;;;8.94;81.97
62864;BME280;48954;59.950;11.014;2023-08-31T01:40:50;98994.34;;;8.93;81.91
62864;BME280;48954;59.950;11.014;2023-08-31T01:43:31;99000.96;;;8.91;81.96
62864;BME280;48954;59.950;11.014;2023-08-31T01:46:00;99004.14;;;8.89;82.11
62864;BME280;48954;59.950;11.014;2023-08-31T01:48:29;99008.45;;;8.90;82.30
62864;BME280;48954;59.950;11.014;2023-08-31T01:51:09;99005.84;;;8.88;82.17
62864;BME280;48954;59.950;11.014;2023-08-31T01:53:50;99005.20;;;8.87;82.24
62864;BME280;48954;59.950;11.014;2023-08-31T01:56:16;99006.03;;;8.86;82.24
62864;BME280;48954;59.950;11.014;2023-08-31T01:58:42;99009.39;;;8.85;82.33
62864;BME280;48954;59.950;11.014;2023-08-31T02:01:08;99008.20;;;8.85;82.42
62864;BME280;48954;59.950;11.014;2023-08-31T02:03:34;99006.85;;;8.83;82.36
62864;BME280;48954;59.950;11.014;2023-08-31T02:06:00;99008.95;;;8.82;82.44
62864;BME280;48954;59.950;11.014;2023-08-31T02:08:27;99007.77;;;8.82;82.65
62864;BME280;48954;59.950;11.014;2023-08-31T02:10:54;99009.27;;;8.83;82.67
62864;BME280;48954;59.950;11.014;2023-08-31T02:13:20;99008.73;;;8.82;82.68
62864;BME280;48954;59.950;11.014;2023-08-31T02:15:46;99005.98;;;8.81;82.58
62864;BME280;48954;59.950;11.014;2023-08-31T02:18:12;99002.59;;;8.81;82.59
62864;BME280;48954;59.950;11.014;2023-08-31T02:20:38;99003.36;;;8.80;82.63
62864;BME280;48954;59.950;11.014;2023-08-31T02:23:04;98996.86;;;8.80;82.75
62864;BME280;48954;59.950;11.014;2023-08-31T02:25:30;98995.65;;;8.78;82.66
62864;BME280;48954;59.950;11.014;2023-08-31T02:27:56;98994.13;;;8.77;82.64
62864;BME280;48954;59.950;11.014;2023-08-31T02:30:22;98998.84;;;8.77;82.87
62864;BME280;48954;59.950;11.014;2023-08-31T02:32:48;99002.08;;;8.78;82.90
62864;BME280;48954;59.950;11.014;2023-08-31T02:35:14;99004.14;;;8.80;83.06
62864;BME280;48954;59.950;11.014;2023-08-31T02:37:42;99010.73;;;8.80;82.83
62864;BME280;48954;59.950;11.014;2023-08-31T02:40:08;99008.83;;;8.79;82.90
62864;BME280;48954;59.950;11.014;2023-08-31T02:42:34;99005.15;;;8.79;83.07
62864;BME280;48954;59.950;11.014;2023-08-31T02:45:01;99005.79;;;8.80;83.17
62864;BME280;48954;59.950;11.014;2023-08-31T02:47:27;99001.73;;;8.80;83.31
62864;BME280;48954;59.950;11.014;2023-08-31T02:49:53;99002.52;;;8.81;83.32
62864;BME280;48954;59.950;11.014;2023-08-31T02:52:19;99004.72;;;8.82;83.42
62864;BME280;48954;59.950;11.014;2023-08-31T02:54:45;99004.96;;;8.82;83.38
62864;BME280;48954;59.950;11.014;2023-08-31T02:57:11;99009.20;;;8.84;83.60
62864;BME280;48954;59.950;11.014;2023-08-31T02:59:38;99004.90;;;8.84;83.53
62864;BME280;48954;59.950;11.014;2023-08-31T03:02:04;99005.16;;;8.85;83.45
62864;BME280;48954;59.950;11.014;2023-08-31T03:04:30;99004.38;;;8.85;83.52
62864;BME280;48954;59.950;11.014;2023-08-31T03:06:57;98998.95;;;8.84;83.43
62864;BME280;48954;59.950;11.014;2023-08-31T03:09:23;99001.60;;;8.84;83.44
62864;BME280;48954;59.950;11.014;2023-08-31T03:11:49;98999.25;;;8.84;83.61
62864;BME280;48954;59.950;11.014;2023-08-31T03:14:16;99003.90;;;8.85;83.63
62864;BME280;48954;59.950;11.014;2023-08-31T03:16:42;99002.64;;;8.84;83.73
62864;BME280;48954;59.950;11.014;2023-08-31T03:19:08;99007.29;;;8.85;83.62
62864;BME280;48954;59.950;11.014;2023-08-31T03:21:34;99002.58;;;8.85;83.68
62864;BME280;48954;59.950;11.014;2023-08-31T03:24:00;98999.58;;;8.84;83.54
62864;BME280;48954;59.950;11.014;2023-08-31T03:26:26;99005.31;;;8.85;83.61
62864;BME280;48954;59.950;11.014;2023-08-31T03:28:52;99006.52;;;8.86;83.84
62864;BME280;48954;59.950;11.014;2023-08-31T03:31:21;99013.66;;;8.87;83.74
62864;BME280;48954;59.950;11.014;2023-08-31T03:33:47;99015.97;;;8.89;83.82
62864;BME280;48954;59.950;11.014;2023-08-31T03:36:15;99010.34;;;8.90;83.94
62864;BME280;48954;59.950;11.014;2023-08-31T03:38:41;99003.05;;;8.89;83.89
62864;BME280;48954;59.950;11.014;2023-08-31T03:41:07;98998.26;;;8.89;83.88
62864;BME280;48954;59.950;11.014;2023-08-31T03:43:34;98998.25;;;8.89;83.94
62864;BME280;48954;59.950;11.014;2023-08-31T03:46:00;98999.81;;;8.89;84.08
62864;BME280;48954;59.950;11.014;2023-08-31T03:48:27;99002.09;;;8.89;84.09
62864;BME280;48954;59.950;11.014;2023-08-31T03:50:54;99002.41;;;8.89;84.08
62864;BME280;48954;59.950;11.014;2023-08-31T03:53:21;99007.45;;;8.90;84.07
62864;BME280;48954;59.950;11.014;2023-08-31T03:55:48;99005.27;;;8.91;84.44
62864;BME280;48954;59.950;11.014;2023-08-31T03:58:16;99007.71;;;8.92;84.44
62864;BME280;48954;59.950;11.014;2023-08-31T04:00:42;99010.19;;;8.94;84.36
62864;BME280;48954;59.950;11.014;2023-08-31T04:03:08;99007.52;;;8.94;84.31
62864;BME280;48954;59.950;11.014;2023-08-31T04:05:35;99005.54;;;8.92;84.24
62864;BME280;48954;59.950;11.014;2023-08-31T04:08:01;99005.38;;;8.92;84.09
62864;BME280;48954;59.950;11.014;2023-08-31T04:10:28;99006.70;;;8.92;84.10
62864;BME280;48954;59.950;11.014;2023-08-31T04:12:54;99007.56;;;8.92;84.05
62864;BME280;48954;59.950;11.014;2023-08-31T04:15:20;99002.80;;;8.89;84.26
62864;BME280;48954;59.950;11.014;2023-08-31T04:17:46;99005.83;;;8.92;84.22
62864;BME280;48954;59.950;11.014;2023-08-31T04:20:12;98999.55;;;8.91;84.17
62864;BME280;48954;59.950;11.014;2023-08-31T04:22:38;99000.88;;;8.91;84.15
62864;BME280;48954;59.950;11.014;2023-08-31T04:25:04;99001.04;;;8.91;84.35
62864;BME280;48954;59.950;11.014;2023-08-31T04:27:30;98999.01;;;8.91;84.29
62864;BME280;48954;59.950;11.014;2023-08-31T04:30:00;99000.58;;;8.91;84.44
62864;BME280;48954;59.950;11.014;2023-08-31T04:32:27;99003.10;;;8.92;84.51
62864;BME280;48954;59.950;11.014;2023-08-31T04:34:53;99000.02;;;8.91;84.54
62864;BME280;48954;59.950;11.014;2023-08-31T04:37:21;99000.91;;;8.92;84.57
62864;BME280;48954;59.950;11.014;2023-08-31T04:39:47;98996.63;;;8.93;84.63
62864;BME280;48954;59.950;11.014;2023-08-31T04:42:13;98996.16;;;8.94;84.64
62864;BME280;48954;59.950;11.014;2023-08-31T04:44:44;98996.80;;;8.96;84.63
62864;BME280;48954;59.950;11.014;2023-08-31T04:47:10;98996.41;;;8.96;84.57
62864;BME280;48954;59.950;11.014;2023-08-31T04:49:38;98996.95;;;8.95;84.71
62864;BME280;48954;59.950;11.014;2023-08-31T04:52:04;98996.20;;;8.97;84.72
62864;BME280;48954;59.950;11.014;2023-08-31T04:54:31;98994.02;;;8.99;84.82
62864;BME280;48954;59.950;11.014;2023-08-31T04:56:57;98997.01;;;9.00;84.65
62864;BME280;48954;59.950;11.014;2023-08-31T04:59:23;98994.92;;;9.01;84.73
62864;BME280;48954;59.950;11.014;2023-08-31T05:01:50;98995.48;;;9.01;84.79
62864;BME280;48954;59.950;11.014;2023-08-31T05:04:17;98992.55;;;8.99;84.95
62864;BME280;48954;59.950;11.014;2023-08-31T05:06:44;99000.94;;;9.04;85.00
62864;BME280;48954;59.950;11.014;2023-08-31T05:09:10;99003.61;;;9.05;85.02
62864;BME280;48954;59.950;11.014;2023-08-31T05:11:46;99002.17;;;9.07;84.92
62864;BME280;48954;59.950;11.014;2023-08-31T05:14:12;99001.23;;;9.07;84.83
62864;BME280;48954;59.950;11.014;2023-08-31T05:16:38;99003.75;;;9.08;84.74
62864;BME280;48954;59.950;11.014;2023-08-31T05:19:04;99001.23;;;9.09;84.71
62864;BME280;48954;59.950;11.014;2023-08-31T05:21:31;99003.31;;;9.11;84.87
62864;BME280;48954;59.950;11.014;2023-08-31T05:23:57;99006.48;;;9.13;84.86
62864;BME280;48954;59.950;11.014;2023-08-31T05:26:24;99005.20;;;9.16;84.97
62864;BME280;48954;59.950;11.014;2023-08-31T05:28:51;99007.45;;;9.18;85.00
62864;BME280;48954;59.950;11.014;2023-08-31T05:31:18;99001.80;;;9.19;84.83
62864;BME280;48954;59.950;11.014;2023-08-31T05:33:44;99002.05;;;9.19;84.92
62864;BME280;48954;59.950;11.014;2023-08-31T05:36:11;99005.99;;;9.21;84.83
62864;BME280;48954;59.950;11.014;2023-08-31T05:38:38;99005.60;;;9.22;84.95
62864;BME280;48954;59.950;11.014;2023-08-31T05:41:07;99007.42;;;9.23;84.94
62864;BME280;48954;59.950;11.014;2023-08-31T05:43:48;99010.28;;;9.25;84.78
62864;BME280;48954;59.950;11.014;2023-08-31T05:46:15;99009.19;;;9.25;84.86
62864;BME280;48954;59.950;11.014;2023-08-31T05:48:43;99013.33;;;9.29;84.92
62864;BME280;48954;59.950;11.014;2023-08-31T05:51:13;99007.95;;;9.31;85.06
62864;BME280;48954;59.950;11.014;2023-08-31T05:53:39;99011.00;;;9.37;85.07
62864;BME280;48954;59.950;11.014;2023-08-31T05:56:06;99012.47;;;9.40;85.14
62864;BME280;48954;59.950;11.014;2023-08-31T05:58:34;99009.11;;;9.45;85.12
62864;BME280;48954;59.950;11.014;2023-08-31T06:01:03;99013.61;;;9.48;85.06
62864;BME280;48954;59.950;11.014;2023-08-31T06:03:43;99013.62;;;9.54;85.18
62864;BME280;48954;59.950;11.014;2023-08-31T06:06:13;99014.49;;;9.59;85.11
62864;BME280;48954;59.950;11.014;2023-08-31T06:08:54;99017.45;;;9.64;85.05
62864;BME280;48954;59.950;11.014;2023-08-31T06:11:22;99019.28;;;9.71;85.29
62864;BME280;48954;59.950;11.014;2023-08-31T06:13:48;99017.41;;;9.78;85.31
62864;BME280;48954;59.950;11.014;2023-08-31T06:16:24;99022.05;;;9.84;85.20
62864;BME280;48954;59.950;11.014;2023-08-31T06:18:50;99017.39;;;9.88;85.20
62864;BME280;48954;59.950;11.014;2023-08-31T06:21:27;99021.20;;;9.91;85.08
62864;BME280;48954;59.950;11.014;2023-08-31T06:23:57;99020.30;;;9.94;85.12
62864;BME280;48954;59.950;11.014;2023-08-31T06:26:37;99021.58;;;9.96;85.07
62864;BME280;48954;59.950;11.014;2023-08-31T06:29:05;99026.63;;;9.97;85.11
62864;BME280;48954;59.950;11.014;2023-08-31T06:31:34;99028.58;;;9.97;84.85
62864;BME280;48954;59.950;11.014;2023-08-31T06:34:01;99025.52;;;9.96;84.78
62864;BME280;48954;59.950;11.014;2023-08-31T06:36:39;99020.14;;;9.94;84.88
62864;BME280;48954;59.950;11.014;2023-08-31T06:39:08;99026.84;;;9.96;84.87
62864;BME280;48954;59.950;11.014;2023-08-31T06:41:39;99020.27;;;9.97;85.02
62864;BME280;48954;59.950;11.014;2023-08-31T06:44:07;99020.91;;;9.98;85.00
62864;BME280;48954;59.950;11.014;2023-08-31T06:46:47;99024.14;;;9.99;85.15
62864;BME280;48954;59.950;11.014;2023-08-31T06:49:15;99020.22;;;10.00;85.18
62864;BME280;48954;59.950;11.014;2023-08-31T06:51:44;99021.12;;;10.04;85.30
62864;BME280;48954;59.950;11.014;2023-08-31T06:54:12;99020.04;;;10.10;85.40
62864;BME280;48954;59.950;11.014;2023-08-31T06:56:52;99026.10;;;10.18;85.55
62864;BME280;48954;59.950;11.014;2023-08-31T06:59:19;99025.11;;;10.26;85.76
62864;BME280;48954;59.950;11.014;2023-08-31T07:01:47;99025.50;;;10.32;85.52
62864;BME280;48954;59.950;11.014;2023-08-31T07:04:16;99027.53;;;10.37;85.42
62864;BME280;48954;59.950;11.014;2023-08-31T07:06:42;99031.15;;;10.45;85.59
62864;BME280;48954;59.950;11.014;2023-08-31T07:09:42;99025.94;;;10.58;85.83
62864;BME280;48954;59.950;11.014;2023-08-31T07:12:23;99025.64;;;10.65;85.68
62864;BME280;48954;59.950;11.014;2023-08-31T07:15:09;99033.63;;;10.78;85.68
62864;BME280;48954;59.950;11.014;2023-08-31T07:17:51;99037.36;;;10.90;85.67
62864;BME280;48954;59.950;11.014;2023-08-31T07:20:17;99038.52;;;10.97;85.58
62864;BME280;48954;59.950;11.014;2023-08-31T07:22:44;99038.84;;;11.06;85.53
62864;BME280;48954;59.950;11.014;2023-08-31T07:25:27;99040.63;;;11.12;85.30
62864;BME280;48954;59.950;11.014;2023-08-31T07:28:08;99043.10;;;11.15;85.19
62864;BME280;48954;59.950;11.014;2023-08-31T07:31:07;99042.31;;;11.18;85.23
62864;BME280;48954;59.950;11.014;2023-08-31T07:33:35;99045.89;;;11.22;85.13
62864;BME280;48954;59.950;11.014;2023-08-31T07:39:15;99042.11;;;11.29;85.00
62864;BME280;48954;59.950;11.014;2023-08-31T07:41:47;99037.92;;;11.37;85.11
62864;BME280;48954;59.950;11.014;2023-08-31T07:44:13;99042.64;;;11.48;85.21
62864;BME280;48954;59.950;11.014;2023-08-31T07:46:39;99044.30;;;11.59;85.20
62864;BME280;48954;59.950;11.014;2023-08-31T07:49:11;99038.85;;;11.69;85.08
62864;BME280;48954;59.950;11.014;2023-08-31T07:51:51;99038.68;;;11.76;84.82
62864;BME280;48954;59.950;11.014;2023-08-31T07:54:21;99037.40;;;11.85;84.67
62864;BME280;48954;59.950;11.014;2023-08-31T07:56:52;99036.66;;;11.92;84.72
62864;BME280;48954;59.950;11.014;2023-08-31T07:59:19;99035.90;;;11.98;84.65
62864;BME280;48954;59.950;11.014;2023-08-31T08:02:07;99039.86;;;12.02;84.25
62864;BME280;48954;59.950;11.014;2023-08-31T08:04:38;99039.71;;;12.07;84.08
62864;BME280;48954;59.950;11.014;2023-08-31T08:07:06;99038.77;;;12.20;84.40
62864;BME280;48954;59.950;11.014;2023-08-31T08:09:33;99037.88;;;12.35;84.43
62864;BME280;48954;59.950;11.014;2023-08-31T08:12:00;99037.14;;;12.51;84.37
62864;BME280;48954;59.950;11.014;2023-08-31T08:14:29;99036.63;;;12.63;84.14
62864;BME280;48954;59.950;11.014;2023-08-31T08:16:58;99037.90;;;12.69;83.77
62864;BME280;48954;59.950;11.014;2023-08-31T08:19:24;99035.41;;;12.81;83.78
62864;BME280;48954;59.950;11.014;2023-08-31T08:21:52;99037.86;;;12.90;83.55
62864;BME280;48954;59.950;11.014;2023-08-31T08:24:18;99039.06;;;13.01;83.26
62864;BME280;48954;59.950;11.014;2023-08-31T08:26:53;99041.75;;;13.13;83.11
62864;BME280;48954;59.950;11.014;2023-08-31T08:29:20;99038.31;;;13.24;83.12
62864;BME280;48954;59.950;11.014;2023-08-31T08:31:47;99039.89;;;13.37;83.06
62864;BME280;48954;59.950;11.014;2023-08-31T08:34:28;99043.45;;;13.46;82.58
62864;BME280;48954;59.950;11.014;2023-08-31T08:36:55;99041.93;;;13.57;82.52
62864;BME280;48954;59.950;11.014;2023-08-31T08:39:22;99033.33;;;13.64;82.39
62864;BME280;48954;59.950;11.014;2023-08-31T08:41:50;99038.34;;;13.82;82.15
62864;BME280;48954;59.950;11.014;2023-08-31T08:44:19;99038.71;;;13.91;81.73
62864;BME280;48954;59.950;11.014;2023-08-31T08:46:49;99039.55;;;14.03;81.53
62864;BME280;48954;59.950;11.014;2023-08-31T08:49:22;99044.41;;;14.13;81.38
62864;BME280;48954;59.950;11.014;2023-08-31T08:52:10;99039.26;;;14.19;81.03
62864;BME280;48954;59.950;11.014;2023-08-31T08:54:41;99038.45;;;14.25;80.61
62864;BME280;48954;59.950;11.014;2023-08-31T08:57:11;99034.31;;;14.30;80.47
62864;BME280;48954;59.950;11.014;2023-08-31T08:59:52;99034.23;;;14.39;80.70
62864;BME280;48954;59.950;11.014;2023-08-31T09:02:26;99032.29;;;14.50;80.64
62864;BME280;48954;59.950;11.014;2023-08-31T09:04:56;99030.90;;;14.58;80.47
62864;BME280;48954;59.950;11.014;2023-08-31T09:07:24;99035.63;;;14.64;79.99
62864;BME280;48954;59.950;11.014;2023-08-31T09:09:52;99028.55;;;14.68;79.80
62864;BME280;48954;59.950;11.014;2023-08-31T09:12:23;99027.48;;;14.72;79.59
62864;BME280;48954;59.950;11.014;2023-08-31T09:15:05;99025.35;;;14.73;79.13
62864;BME280;48954;59.950;11.014;2023-08-31T09:17:41;99024.73;;;14.69;78.81
62864;BME280;48954;59.950;11.014;2023-08-31T09:20:08;99021.48;;;14.70;78.62
62864;BME280;48954;59.950;11.014;2023-08-31T09:22:34;99017.62;;;14.70;78.33
62864;BME280;48954;59.950;11.014;2023-08-31T09:25:01;99012.39;;;14.73;78.43
62864;BME280;48954;59.950;11.014;2023-08-31T09:27:28;99013.36;;;14.81;78.67
62864;BME280;48954;59.950;11.014;2023-08-31T09:29:54;99012.03;;;14.91;79.04
62864;BME280;48954;59.950;11.014;2023-08-31T09:32:23;99010.06;;;15.01;78.92
62864;BME280;48954;59.950;11.014;2023-08-31T09:34:50;99011.42;;;15.11;78.77
62864;BME280;48954;59.950;11.014;2023-08-31T09:37:16;99009.20;;;15.20;78.38
62864;BME280;48954;59.950;11.014;2023-08-31T09:39:42;99010.50;;;15.26;78.10
62864;BME280;48954;59.950;11.014;2023-08-31T09:42:08;99013.48;;;15.38;78.19
62864;BME280;48954;59.950;11.014;2023-08-31T09:44:43;99010.55;;;15.47;77.89
62864;BME280;48954;59.950;11.014;2023-08-31T09:47:11;99010.98;;;15.51;77.22
62864;BME280;48954;59.950;11.014;2023-08-31T09:49:41;99008.57;;;15.58;77.32
62864;BME280;48954;59.950;11.014;2023-08-31T09:52:08;99000.83;;;15.65;76.80
62864;BME280;48954;59.950;11.014;2023-08-31T09:54:36;99001.54;;;15.65;76.12
62864;BME280;48954;59.950;11.014;2023-08-31T09:57:03;99005.67;;;15.71;76.19
62864;BME280;48954;59.950;11.014;2023-08-31T09:59:31;99001.14;;;15.81;76.13
62864;BME280;48954;59.950;11.014;2023-08-31T10:01:58;98997.30;;;15.92;75.97
62864;BME280;48954;59.950;11.014;2023-08-31T10:04:24;99000.49;;;16.03;75.61
62864;BME280;48954;59.950;11.014;2023-08-31T10:06:51;98996.14;;;16.15;75.58
62864;BME280;48954;59.950;11.014;2023-08-31T10:09:19;98994.69;;;16.24;75.22
62864;BME280;48954;59.950;11.014;2023-08-31T10:11:46;98997.55;;;16.36;75.13
62864;BME280;48954;59.950;11.014;2023-08-31T10:14:13;98996.73;;;16.50;75.04
62864;BME280;48954;59.950;11.014;2023-08-31T10:16:43;98997.29;;;16.62;74.62
62864;BME280;48954;59.950;11.014;2023-08-31T10:19:10;98993.31;;;16.75;74.18
62864;BME280;48954;59.950;11.014;2023-08-31T10:21:36;98994.55;;;16.83;73.70
62864;BME280;48954;59.950;11.014;2023-08-31T10:24:03;98998.25;;;16.85;73.11
62864;BME280;48954;59.950;11.014;2023-08-31T10:26:31;98997.16;;;16.88;72.67
62864;BME280;48954;59.950;11.014;2023-08-31T10:29:05;98997.39;;;16.94;72.86
62864;BME280;48954;59.950;11.014;2023-08-31T10:31:33;98995.92;;;17.02;72.23
62864;BME280;48954;59.950;11.014;2023-08-31T10:34:05;98993.02;;;17.10;72.05
62864;BME280;48954;59.950;11.014;2023-08-31T10:36:44;98988.12;;;17.18;71.71
62864;BME280;48954;59.950;11.014;2023-08-31T10:41:37;98987.91;;;17.36;71.05
62864;BME280;48954;59.950;11.014;2023-08-31T10:44:23;98981.69;;;17.45;70.63
62864;BME280;48954;59.950;11.014;2023-08-31T10:46:50;98981.71;;;17.53;70.28
62864;BME280;48954;59.950;11.014;2023-08-31T10:49:19;98984.42;;;17.57;69.92
62864;BME280;48954;59.950;11.014;2023-08-31T10:51:49;98981.83;;;17.60;69.45
62864;BME280;48954;59.950;11.014;2023-08-31T10:54:26;98976.30;;;17.65;69.13
62864;BME280;48954;59.950;11.014;2023-08-31T10:59:50;98969.91;;;17.91;68.93
62864;BME280;48954;59.950;11.014;2023-08-31T11:02:36;98964.14;;;18.05;68.89
62864;BME280;48954;59.950;11.014;2023-08-31T11:07:36;98959.23;;;18.19;68.37
62864;BME280;48954;59.950;11.014;2023-08-31T11:10:20;98956.66;;;18.24;67.61
62864;BME280;48954;59.950;11.014;2023-08-31T11:12:49;98954.65;;;18.29;67.21
62864;BME280;48954;59.950;11.014;2023-08-31T11:18:38;98948.88;;;18.35;65.55
62864;BME280;48954;59.950;11.014;2023-08-31T11:21:19;98950.00;;;18.34;64.90
62864;BME280;48954;59.950;11.014;2023-08-31T11:24:23;98950.91;;;18.37;64.71
62864;BME280;48954;59.950;11.014;2023-08-31T11:26:53;98952.80;;;18.30;63.64
62864;BME280;48954;59.950;11.014;2023-08-31T11:29:43;98946.56;;;18.24;63.71
62864;BME280;48954;59.950;11.014;2023-08-31T11:32:32;98948.71;;;18.20;63.51
62864;BME280;48954;59.950;11.014;2023-08-31T11:35:32;98945.81;;;18.18;62.64
62864;BME280;48954;59.950;11.014;2023-08-31T11:37:59;98947.49;;;18.18;62.28
62864;BME280;48954;59.950;11.014;2023-08-31T11:40:26;98948.51;;;18.16;61.86
62864;BME280;48954;59.950;11.014;2023-08-31T11:42:54;98944.64;;;18.10;61.24
62864;BME280;48954;59.950;11.014;2023-08-31T11:48:17;98953.27;;;18.08;61.25
62864;BME280;48954;59.950;11.014;2023-08-31T11:50:46;98952.86;;;18.12;60.81
62864;BME280;48954;59.950;11.014;2023-08-31T11:56:14;98945.20;;;18.14;61.42
62864;BME280;48954;59.950;11.014;2023-08-31T11:58:56;98948.39;;;18.13;61.59
62864;BME280;48954;59.950;11.014;2023-08-31T12:01:31;98947.52;;;18.09;61.24
62864;BME280;48954;59.950;11.014;2023-08-31T12:04:10;98948.75;;;18.07;61.28
62864;BME280;48954;59.950;11.014;2023-08-31T12:06:36;98942.76;;;18.08;61.23
62864;BME280;48954;59.950;11.014;2023-08-31T12:09:05;98944.73;;;18.14;61.27
62864;BME280;48954;59.950;11.014;2023-08-31T12:11:52;98942.41;;;18.17;61.21
62864;BME280;48954;59.950;11.014;2023-08-31T12:15:05;98942.36;;;18.19;61.00
62864;BME280;48954;59.950;11.014;2023-08-31T12:21:45;98939.92;;;18.26;61.27
62864;BME280;48954;59.950;11.014;2023-08-31T12:24:26;98941.55;;;18.29;60.96
62864;BME280;48954;59.950;11.014;2023-08-31T12:26:58;98940.42;;;18.29;60.96
62864;BME280;48954;59.950;11.014;2023-08-31T12:29:26;98938.92;;;18.31;60.68
62864;BME280;48954;59.950;11.014;2023-08-31T12:31:53;98940.30;;;18.34;61.10
62864;BME280;48954;59.950;11.014;2023-08-31T12:34:34;98935.34;;;18.43;60.93
62864;BME280;48954;59.950;11.014;2023-08-31T12:37:00;98927.75;;;18.48;60.51
62864;BME280;48954;59.950;11.014;2023-08-31T12:39:31;98926.92;;;18.49;60.01
62864;BME280;48954;59.950;11.014;2023-08-31T12:41:59;98929.61;;;18.54;60.15
62864;BME280;48954;59.950;11.014;2023-08-31T12:44:28;98921.19;;;18.53;59.09
62864;BME280;48954;59.950;11.014;2023-08-31T12:47:08;98926.38;;;18.49;58.19
62864;BME280;48954;59.950;11.014;2023-08-31T12:49:53;98924.44;;;18.46;58.46
62864;BME280;48954;59.950;11.014;2023-08-31T12:52:34;98919.13;;;18.45;57.85
62864;BME280;48954;59.950;11.014;2023-08-31T12:55:15;98923.68;;;18.42;57.33
62864;BME280;48954;59.950;11.014;2023-08-31T12:57:43;98919.74;;;18.40;57.13
62864;BME280;48954;59.950;11.014;2023-08-31T13:00:18;98924.70;;;18.39;57.18
62864;BME280;48954;59.950;11.014;2023-08-31T13:02:46;98924.42;;;18.40;57.71
62864;BME280;48954;59.950;11.014;2023-08-31T13:05:21;98916.55;;;18.40;57.10
62864;BME280;48954;59.950;11.014;2023-08-31T13:07:48;98909.55;;;18.37;56.24
62864;BME280;48954;59.950;11.014;2023-08-31T13:10:29;98915.77;;;18.36;56.51
62864;BME280;48954;59.950;11.014;2023-08-31T13:12:57;98916.66;;;18.35;56.20
62864;BME280;48954;59.950;11.014;2023-08-31T13:15:24;98918.82;;;18.35;56.36
62864;BME280;48954;59.950;11.014;2023-08-31T13:17:52;98916.39;;;18.37;56.40
62864;BME280;48954;59.950;11.014;2023-08-31T13:20:22;98921.94;;;18.37;55.98
62864;BME280;48954;59.950;11.014;2023-08-31T13:23:03;98920.86;;;18.39;56.71
62864;BME280;48954;59.950;11.014;2023-08-31T13:25:31;98918.16;;;18.40;56.09
62864;BME280;48954;59.950;11.014;2023-08-31T13:28:12;98915.89;;;18.42;56.88
62864;BME280;48954;59.950;11.014;2023-08-31T13:30:57;98917.83;;;18.43;57.31
62864;BME280;48954;59.950;11.014;2023-08-31T13:33:40;98914.13;;;18.45;57.31
62864;BME280;48954;59.950;11.014;2023-08-31T13:36:33;98915.77;;;18.46;57.18
62864;BME280;48954;59.950;11.014;2023-08-31T13:39:19;98914.73;;;18.46;56.59
62864;BME280;48954;59.950;11.014;2023-08-31T13:42:05;98914.50;;;18.46;56.57
62864;BME280;48954;59.950;11.014;2023-08-31T13:45:25;98912.86;;;18.45;55.57